Time;durP1;ratioP1;P1;durP2;ratioP2;P2;SDS_P1;SDS_P2;PMS_P1;PMS_P2;Temp;Humidity;BMP_temperature;BMP_pressure;BME280_temperature;BME280_humidity;BME280_pressure;Samples;Min_cycle;Max_cycle;Signal;HPM_P1;HPM_P2
2021/09/11 05:48:26;;;;;;;;;;;;;;;15.38;70.71;100071.06;4934612;29;19945;-80
2021/09/11 05:50:53;;;;;;;;;;;;;;;15.42;70.52;100071.22;4936896;29;19927;-80
2021/09/11 05:53:19;;;;;;;;;;;;;;;15.55;69.88;100074.94;4936421;29;19981;-80
2021/09/11 05:55:46;;;;;;;;;;;;;;;15.66;70.43;100074.31;4936895;29;19926;-80
2021/09/11 05:58:11;;;;;;;;;;;;;;;15.70;69.92;100067.00;4937125;29;19959;-80
2021/09/11 06:00:38;;;;;;;;;;;;;;;15.84;70.04;100063.22;4937005;29;19926;-80
2021/09/11 06:03:04;;;;;;;;;;;;;;;15.98;68.77;100074.81;4936955;29;20057;-80
2021/09/11 06:05:30;;;;;;;;;;;;;;;16.11;68.95;100076.56;4936518;29;20090;-80
2021/09/11 06:07:55;;;;;;;;;;;;;;;16.28;68.25;100075.66;4935508;29;19927;-78
2021/09/11 06:10:21;;;;;;;;;;;;;;;16.40;68.74;100070.25;4950293;29;20292;-85
2021/09/11 06:12:47;;;;;;;;;;;;;;;16.56;67.56;100069.69;4936615;29;19977;-85
2021/09/11 06:15:15;;;;;;;;;;;;;;;16.66;67.00;100070.09;4936231;29;19934;-85
2021/09/11 06:17:41;;;;;;;;;;;;;;;16.71;66.50;100065.50;4936910;29;19927;-89
2021/09/11 06:20:07;;;;;;;;;;;;;;;16.80;66.96;100071.81;4937952;29;20027;-90
2021/09/11 06:22:33;;;;;;;;;;;;;;;16.80;66.80;100067.09;4937924;29;19927;-91
2021/09/11 06:24:58;;;;;;;;;;;;;;;16.83;66.68;100066.44;4937581;29;19927;-85
2021/09/11 06:27:24;;;;;;;;;;;;;;;16.93;66.22;100069.94;4937752;29;19927;-86
2021/09/11 06:29:52;;;;;;;;;;;;;;;16.99;65.14;100076.88;4937569;29;19942;-84
2021/09/11 06:32:18;;;;;;;;;;;;;;;17.08;65.75;100070.09;4937925;29;19926;-83
2021/09/11 06:34:44;;;;;;;;;;;;;;;17.24;66.62;100061.19;4936628;29;20383;-84
2021/09/11 06:37:09;;;;;;;;;;;;;;;17.36;66.11;100069.53;4937104;29;20320;-81
2021/09/11 06:39:35;;;;;;;;;;;;;;;17.46;65.41;100071.88;4937222;29;19973;-89
2021/09/11 06:42:01;;;;;;;;;;;;;;;17.44;64.68;100070.59;4937341;29;19934;-85
2021/09/11 06:44:27;;;;;;;;;;;;;;;17.55;65.02;100066.28;4936412;29;19931;-89
2021/09/11 06:46:53;;;;;;;;;;;;;;;17.63;64.98;100068.13;4936435;29;19927;-89
2021/09/11 06:49:19;;;;;;;;;;;;;;;17.70;63.67;100064.81;4937539;29;19949;-90
2021/09/11 06:51:44;;;;;;;;;;;;;;;17.75;64.05;100070.13;4937436;29;20439;-90
2021/09/11 06:54:11;;;;;;;;;;;;;;;17.76;63.60;100072.56;4936436;29;20315;-90
2021/09/11 06:56:38;;;;;;;;;;;;;;;17.81;63.85;100069.59;4937116;29;20026;-90
2021/09/11 06:59:04;;;;;;;;;;;;;;;17.89;64.27;100073.41;4937031;29;20432;-89
2021/09/11 07:01:29;;;;;;;;;;;;;;;17.93;63.11;100074.31;4935955;29;19930;-90
2021/09/11 07:03:57;;;;;;;;;;;;;;;17.94;62.48;100073.16;4935854;29;19931;-90
2021/09/11 07:06:23;;;;;;;;;;;;;;;17.99;62.02;100072.16;4937269;29;19927;-90
2021/09/11 07:08:51;;;;;;;;;;;;;;;18.04;60.75;100078.25;4937361;29;20021;-89
2021/09/11 07:11:17;;;;;;;;;;;;;;;18.13;61.29;100072.63;4937122;29;20368;-90
2021/09/11 07:13:43;;;;;;;;;;;;;;;18.19;60.04;100070.44;4936915;29;19927;-89
2021/09/11 07:16:08;;;;;;;;;;;;;;;18.25;59.97;100069.06;4936862;29;20086;-89
2021/09/11 07:18:34;;;;;;;;;;;;;;;18.28;60.37;100073.91;4935590;29;20340;-89
2021/09/11 07:21:00;;;;;;;;;;;;;;;18.43;60.80;100075.94;4935723;29;19966;-89
2021/09/11 07:23:26;;;;;;;;;;;;;;;18.46;60.20;100077.22;4935598;29;19926;-89
2021/09/11 07:25:52;;;;;;;;;;;;;;;18.51;59.54;100077.81;4935717;29;20392;-89
2021/09/11 07:28:18;;;;;;;;;;;;;;;18.59;60.80;100066.94;4935447;29;19934;-89
2021/09/11 07:30:44;;;;;;;;;;;;;;;18.66;60.39;100067.16;4936659;29;19927;-89
2021/09/11 07:33:11;;;;;;;;;;;;;;;18.70;60.14;100066.09;4936480;29;19933;-87
2021/09/11 07:35:37;;;;;;;;;;;;;;;18.67;59.38;100066.00;4936926;29;19927;-88
2021/09/11 07:38:03;;;;;;;;;;;;;;;18.72;59.29;100069.38;4936372;29;20323;-89
2021/09/11 07:40:29;;;;;;;;;;;;;;;18.82;59.56;100075.59;4936523;29;19938;-89
2021/09/11 07:42:54;;;;;;;;;;;;;;;18.97;59.39;100067.34;4936285;29;19927;-89
2021/09/11 07:45:20;;;;;;;;;;;;;;;19.05;58.37;100067.56;4936290;29;19990;-88
2021/09/11 07:47:46;;;;;;;;;;;;;;;19.15;59.35;100062.31;4936154;29;19933;-89
2021/09/11 07:50:12;;;;;;;;;;;;;;;19.24;60.07;100060.22;4935186;29;20419;-89
2021/09/11 07:52:39;;;;;;;;;;;;;;;19.27;59.39;100061.47;4936403;29;19927;-89
2021/09/11 07:55:06;;;;;;;;;;;;;;;19.34;58.93;100058.09;4936050;29;19934;-89
2021/09/11 07:57:32;;;;;;;;;;;;;;;19.43;58.87;100053.19;4935007;29;20439;-90
2021/09/11 07:59:58;;;;;;;;;;;;;;;19.39;56.92;100050.31;4936396;29;19980;-89
2021/09/11 08:02:26;;;;;;;;;;;;;;;19.29;57.71;100041.72;4950883;29;19950;-88
2021/09/11 08:04:51;;;;;;;;;;;;;;;19.26;57.67;100037.66;4936123;29;19926;-90
2021/09/11 08:07:20;;;;;;;;;;;;;;;19.31;58.15;100040.19;4935987;29;19927;-89
2021/09/11 08:09:46;;;;;;;;;;;;;;;19.38;57.82;100040.38;4934679;29;20311;-89
2021/09/11 08:12:12;;;;;;;;;;;;;;;19.52;57.80;100039.16;4918913;29;19928;-88
2021/09/11 08:14:40;;;;;;;;;;;;;;;19.53;56.96;100043.53;4934622;29;19927;-89
2021/09/11 08:17:06;;;;;;;;;;;;;;;19.60;57.12;100030.69;4935904;29;19927;-89
2021/09/11 08:19:32;;;;;;;;;;;;;;;19.77;58.18;100031.50;4934902;29;20347;-89
2021/09/11 08:21:58;;;;;;;;;;;;;;;19.81;56.52;100033.22;4950650;29;19926;-89
2021/09/11 08:24:24;;;;;;;;;;;;;;;19.92;56.23;100028.75;4934518;29;19933;-89
2021/09/11 08:26:49;;;;;;;;;;;;;;;19.97;56.58;100030.47;4950449;29;19934;-89
2021/09/11 08:29:15;;;;;;;;;;;;;;;20.05;56.48;100042.53;4918806;29;19982;-90
2021/09/11 08:31:42;;;;;;;;;;;;;;;20.03;55.30;100033.75;4935607;29;19927;-90
2021/09/11 08:34:07;;;;;;;;;;;;;;;20.14;55.68;100032.06;4935320;29;19937;-89
2021/09/11 08:36:35;;;;;;;;;;;;;;;20.19;54.34;100031.75;4950006;29;19982;-89
2021/09/11 08:39:01;;;;;;;;;;;;;;;20.21;55.15;100034.19;4934213;29;19931;-89
2021/09/11 08:41:29;;;;;;;;;;;;;;;20.11;55.66;100039.13;4935544;29;19989;-89
2021/09/11 08:43:55;;;;;;;;;;;;;;;20.15;56.01;100030.88;4935478;29;19958;-86
2021/09/11 08:46:21;;;;;;;;;;;;;;;20.14;54.63;100029.28;4935212;29;20013;-88
2021/09/11 08:48:47;;;;;;;;;;;;;;;20.12;54.51;100034.38;4918541;29;20029;-89
2021/09/11 08:51:13;;;;;;;;;;;;;;;20.04;53.86;100027.06;4934173;29;19927;-87
2021/09/11 08:53:39;;;;;;;;;;;;;;;20.02;54.45;100032.16;4949993;29;19933;-91
2021/09/11 08:56:05;;;;;;;;;;;;;;;19.97;55.44;100030.47;4933552;29;19973;-88
2021/09/11 08:58:31;;;;;;;;;;;;;;;19.98;55.69;100022.94;4933974;29;19926;-89
2021/09/11 09:00:59;;;;;;;;;;;;;;;20.03;55.68;100025.41;4935189;29;20404;-90
2021/09/11 09:03:37;;;;;;;;;;;;;;;20.09;54.84;100029.53;4935028;29;19981;-90
2021/09/11 09:06:14;;;;;;;;;;;;;;;20.10;56.10;100011.75;4933863;29;20427;-87
2021/09/11 09:08:41;;;;;;;;;;;;;;;20.19;55.82;100015.09;4933578;29;20108;-89
2021/09/11 09:11:16;;;;;;;;;;;;;;;20.23;54.42;100017.97;4949664;29;19926;-89
2021/09/11 09:13:49;;;;;;;;;;;;;;;20.11;54.52;100005.00;4934813;29;19931;-89
2021/09/11 09:16:15;;;;;;;;;;;;;;;20.02;55.35;100007.97;4933771;29;19952;-89
2021/09/11 09:18:41;;;;;;;;;;;;;;;19.92;55.08;100012.09;4933812;29;19973;-87
2021/09/11 09:21:35;;;;;;;;;;;;;;;19.90;55.69;100014.44;4949610;29;20567;-86
2021/09/11 09:24:04;;;;;;;;;;;;;;;19.86;54.96;100005.19;4934583;29;19927;-87
2021/09/11 09:26:31;;;;;;;;;;;;;;;20.09;57.15;100004.56;4935684;29;19927;-92
2021/09/11 09:28:59;;;;;;;;;;;;;;;20.08;55.26;100014.06;4935849;29;19926;-90
2021/09/11 09:31:25;;;;;;;;;;;;;;;19.92;55.47;100000.19;4928576;29;20288;-85
2021/09/11 09:33:51;;;;;;;;;;;;;;;19.82;55.81;100006.28;4914089;29;19927;-85
2021/09/11 09:36:17;;;;;;;;;;;;;;;19.69;56.45;100008.34;4915348;29;19999;-84
2021/09/11 09:38:44;;;;;;;;;;;;;;;19.61;57.18;99998.19;4929879;29;20381;-85
2021/09/11 09:41:11;;;;;;;;;;;;;;;19.57;57.35;100000.88;4929391;29;19982;-84
2021/09/11 09:43:42;;;;;;;;;;;;;;;19.41;56.22;100000.06;4933343;29;20025;-85
2021/09/11 09:46:10;;;;;;;;;;;;;;;19.31;57.53;99998.63;4934003;29;19927;-84
2021/09/11 09:48:37;;;;;;;;;;;;;;;19.29;57.89;100000.94;4934225;29;19927;-87
2021/09/11 09:51:04;;;;;;;;;;;;;;;19.23;57.73;99988.47;4933462;29;19954;-88
2021/09/11 09:53:30;;;;;;;;;;;;;;;19.13;57.83;99986.22;4933704;29;19926;-88
2021/09/11 09:55:57;;;;;;;;;;;;;;;19.05;58.35;99987.19;4933694;29;19933;-87
2021/09/11 09:58:23;;;;;;;;;;;;;;;19.06;58.63;99983.25;4934316;29;19970;-86
2021/09/11 10:00:50;;;;;;;;;;;;;;;19.08;59.40;99984.53;4934225;29;19927;-86
2021/09/11 10:03:15;;;;;;;;;;;;;;;19.09;60.42;99977.81;4933740;29;19934;-85
2021/09/11 10:05:46;;;;;;;;;;;;;;;19.23;59.04;99980.16;4934293;29;19922;-85
2021/09/11 10:08:12;;;;;;;;;;;;;;;19.13;58.48;99984.25;4934236;29;19977;-85
2021/09/11 10:10:40;;;;;;;;;;;;;;;19.01;58.11;99971.28;4937521;29;19989;-87
2021/09/11 10:13:18;;;;;;;;;;;;;;;19.46;59.05;99972.84;4937200;29;19927;-87
2021/09/11 10:15:56;;;;;;;;;;;;;;;19.55;56.16;99967.16;4937679;29;20025;-84
2021/09/11 10:18:32;;;;;;;;;;;;;;;19.30;56.28;99966.47;4937978;29;19927;-92
2021/09/11 10:21:10;;;;;;;;;;;;;;;19.08;58.19;99959.59;4918676;29;20388;-93
2021/09/11 10:23:37;;;;;;;;;;;;;;;18.96;58.47;99965.97;4903388;29;19963;-91
2021/09/11 10:26:02;;;;;;;;;;;;;;;18.91;58.97;99969.03;4919799;29;20418;-94
2021/09/11 10:28:28;;;;;;;;;;;;;;;18.98;58.67;99963.66;4919054;29;19954;-91
2021/09/11 10:31:01;;;;;;;;;;;;;;;19.07;59.38;99962.69;4925376;29;19926;-93
2021/09/11 10:33:43;;;;;;;;;;;;;;;19.10;58.61;99957.25;4923256;29;19931;-95
2021/09/11 10:36:11;;;;;;;;;;;;;;;19.13;58.92;99953.75;4938658;29;19969;-94
2021/09/11 10:38:38;;;;;;;;;;;;;;;19.18;59.67;99949.94;4921722;29;19927;-95
2021/09/11 10:41:13;;;;;;;;;;;;;;;19.11;59.66;99947.00;4921716;29;19926;-93
2021/09/11 10:43:59;;;;;;;;;;;;;;;19.00;59.75;99950.25;4921760;29;19926;-86
2021/09/11 10:46:44;;;;;;;;;;;;;;;19.13;60.79;99951.00;4920201;29;20273;-87
2021/09/11 10:49:41;;;;;;;;;;;;;;;19.52;58.71;99947.66;4938163;29;20396;-87
2021/09/11 10:52:11;;;;;;;;;;;;;;;19.81;57.95;99950.00;4919194;29;19931;-88
2021/09/11 10:54:41;;;;;;;;;;;;;;;19.87;57.69;99950.53;4935321;29;19934;-90
2021/09/11 10:57:14;;;;;;;;;;;;;;;19.93;57.94;99949.06;4935246;29;19927;-93
2021/09/11 10:59:44;;;;;;;;;;;;;;;19.74;58.75;99944.28;4904669;29;19926;-92
2021/09/11 11:02:19;;;;;;;;;;;;;;;19.50;58.92;99950.75;4904582;29;20025;-92
2021/09/11 11:04:49;;;;;;;;;;;;;;;19.46;59.70;99942.34;4904249;29;20032;-93
2021/09/11 11:07:15;;;;;;;;;;;;;;;19.32;59.51;99936.44;4920402;29;19981;-91
2021/09/11 11:09:46;;;;;;;;;;;;;;;19.34;59.77;99925.81;4920061;29;19954;-91
2021/09/11 11:12:13;;;;;;;;;;;;;;;19.32;60.77;99930.09;4936154;29;19927;-91
2021/09/11 11:14:47;;;;;;;;;;;;;;;19.29;60.63;99926.06;4904446;29;19927;-93
2021/09/11 11:17:19;;;;;;;;;;;;;;;19.13;60.73;99916.94;4904219;29;19938;-92
2021/09/11 11:19:49;;;;;;;;;;;;;;;19.18;60.74;99916.69;4934735;29;19929;-87
2021/09/11 11:22:17;;;;;;;;;;;;;;;19.17;60.70;99912.28;4934836;29;19927;-85
2021/09/11 11:24:45;;;;;;;;;;;;;;;19.17;61.01;99906.75;4934607;29;19975;-86
2021/09/11 11:27:13;;;;;;;;;;;;;;;19.13;61.52;99909.41;4918447;29;19922;-86
2021/09/11 11:29:39;;;;;;;;;;;;;;;19.15;61.55;99906.31;4935838;29;19927;-86
2021/09/11 11:32:07;;;;;;;;;;;;;;;19.26;61.85;99901.84;4935216;29;19923;-83
2021/09/11 11:34:32;;;;;;;;;;;;;;;19.33;61.84;99898.44;4935937;29;20033;-85
2021/09/11 11:37:00;;;;;;;;;;;;;;;19.47;61.85;99896.03;4936297;29;20021;-84
2021/09/11 11:39:30;;;;;;;;;;;;;;;19.61;62.16;99893.59;4936300;29;19933;-85
2021/09/11 11:42:02;;;;;;;;;;;;;;;19.84;61.00;99891.00;4934992;29;20404;-91
2021/09/11 11:44:28;;;;;;;;;;;;;;;19.70;61.91;99888.72;4919620;29;19986;-90
2021/09/11 11:47:02;;;;;;;;;;;;;;;19.61;62.03;99888.06;4936247;29;19933;-89
2021/09/11 11:49:38;;;;;;;;;;;;;;;19.57;62.23;99887.19;4935884;29;19957;-88
2021/09/11 11:52:05;;;;;;;;;;;;;;;19.64;63.09;99883.81;4903048;29;19927;-93
2021/09/11 11:54:32;;;;;;;;;;;;;;;19.78;62.40;99891.66;4933725;29;19966;-88
2021/09/11 11:57:05;;;;;;;;;;;;;;;19.86;62.71;99880.34;4936072;29;19927;-87
2021/09/11 11:59:32;;;;;;;;;;;;;;;20.00;62.73;99879.88;4950371;29;20333;-82
2021/09/11 12:01:58;;;;;;;;;;;;;;;20.06;61.81;99880.38;4936148;29;19931;-90
2021/09/11 12:04:25;;;;;;;;;;;;;;;19.92;61.98;99867.78;4919515;29;19927;-87
2021/09/11 12:06:54;;;;;;;;;;;;;;;19.87;62.62;99868.09;4935857;29;19941;-88
2021/09/11 12:09:21;;;;;;;;;;;;;;;19.99;62.85;99863.56;4918315;29;19976;-86
2021/09/11 12:11:47;;;;;;;;;;;;;;;20.12;63.34;99860.28;4935464;29;20070;-86
2021/09/11 12:14:15;;;;;;;;;;;;;;;20.12;61.92;99867.81;4934431;29;19927;-85
2021/09/11 12:16:42;;;;;;;;;;;;;;;20.12;61.86;99862.28;4935443;29;19927;-84
2021/09/11 12:19:18;;;;;;;;;;;;;;;20.21;61.89;99862.88;4935489;29;19933;-86
2021/09/11 12:21:45;;;;;;;;;;;;;;;20.26;62.51;99857.00;4935040;29;19979;-86
2021/09/11 12:24:24;;;;;;;;;;;;;;;20.33;61.76;99845.25;4934276;29;19946;-87
2021/09/11 12:26:50;;;;;;;;;;;;;;;20.39;60.86;99849.34;4935731;29;19922;-90
2021/09/11 12:29:17;;;;;;;;;;;;;;;20.35;61.70;99849.28;4935380;29;20029;-86
2021/09/11 12:31:52;;;;;;;;;;;;;;;20.33;61.83;99850.81;4933422;29;19970;-88
2021/09/11 12:34:20;;;;;;;;;;;;;;;20.31;61.61;99842.06;4935185;29;19926;-87
2021/09/11 12:36:47;;;;;;;;;;;;;;;20.31;61.57;99845.63;4934022;29;19981;-87
2021/09/11 12:39:23;;;;;;;;;;;;;;;20.38;61.38;99842.19;4935175;29;20035;-87
2021/09/11 12:41:50;;;;;;;;;;;;;;;20.37;62.11;99835.84;4929448;29;19927;-85
2021/09/11 12:44:20;;;;;;;;;;;;;;;20.27;61.49;99830.88;4933048;29;20022;-82
2021/09/11 12:46:48;;;;;;;;;;;;;;;20.15;62.38;99831.00;4932961;29;19955;-82
2021/09/11 12:49:15;;;;;;;;;;;;;;;20.15;62.95;99817.13;4933884;29;19933;-84
2021/09/11 12:51:43;;;;;;;;;;;;;;;20.07;63.03;99829.28;4933415;29;20292;-85
2021/09/11 12:54:09;;;;;;;;;;;;;;;20.09;62.60;99836.03;4934092;29;20356;-89
2021/09/11 12:56:35;;;;;;;;;;;;;;;20.13;62.62;99822.22;4933691;29;19927;-79
2021/09/11 12:59:02;;;;;;;;;;;;;;;20.06;62.96;99816.53;4933015;29;19980;-83
2021/09/11 13:01:31;;;;;;;;;;;;;;;20.05;62.51;99817.72;4934653;29;19962;-90
2021/09/11 13:03:57;;;;;;;;;;;;;;;20.02;63.28;99815.66;4933649;29;20495;-93
2021/09/11 13:06:22;;;;;;;;;;;;;;;20.04;63.23;99802.25;4933543;29;19982;-89
2021/09/11 13:08:48;;;;;;;;;;;;;;;20.03;63.10;99812.50;4934693;29;20375;-86
2021/09/11 13:11:15;;;;;;;;;;;;;;;20.04;63.64;99810.56;4949407;29;20535;-85
2021/09/11 13:13:42;;;;;;;;;;;;;;;20.06;63.34;99811.00;4933357;29;19926;-88
2021/09/11 13:18:38;;;;;;;;;;;;;;;20.21;63.22;99803.78;4933984;29;19933;-87
2021/09/11 13:21:08;;;;;;;;;;;;;;;20.31;63.07;99795.66;4949045;29;19923;-87
2021/09/11 13:23:38;;;;;;;;;;;;;;;20.44;63.05;99806.59;4933624;29;19931;-87
2021/09/11 13:26:08;;;;;;;;;;;;;;;20.54;62.74;99795.72;4933584;29;19936;-87
2021/09/11 13:28:34;;;;;;;;;;;;;;;20.64;62.35;99803.44;4932188;29;19949;-89
2021/09/11 13:31:00;;;;;;;;;;;;;;;20.57;62.01;99794.97;4948512;29;19933;-88
2021/09/11 13:33:26;;;;;;;;;;;;;;;20.46;62.08;99796.72;4932111;29;19922;-84
2021/09/11 13:35:51;;;;;;;;;;;;;;;20.37;63.02;99794.19;4933237;29;19926;-81
2021/09/11 13:38:17;;;;;;;;;;;;;;;20.32;63.12;99794.47;4933132;29;19927;-81
2021/09/11 13:40:43;;;;;;;;;;;;;;;20.30;62.88;99785.72;4932755;29;19934;-81
2021/09/11 13:43:09;;;;;;;;;;;;;;;20.23;63.20;99781.97;4934555;29;19927;-81
2021/09/11 13:45:37;;;;;;;;;;;;;;;20.26;63.71;99784.03;4935056;29;19922;-82
2021/09/11 13:48:03;;;;;;;;;;;;;;;20.18;63.70;99781.13;4936466;29;19974;-82
2021/09/11 13:50:28;;;;;;;;;;;;;;;20.09;64.04;99779.72;4935620;29;19931;-82
2021/09/11 13:52:54;;;;;;;;;;;;;;;20.00;64.48;99773.59;4937049;29;19950;-82
2021/09/11 13:55:22;;;;;;;;;;;;;;;19.82;64.36;99776.00;4938485;29;19973;-84
2021/09/11 13:57:47;;;;;;;;;;;;;;;19.87;65.84;99784.84;4950948;29;20375;-82
2021/09/11 14:00:13;;;;;;;;;;;;;;;19.81;64.52;99785.50;4939897;29;19927;-81
2021/09/11 14:02:39;;;;;;;;;;;;;;;19.67;65.01;99780.44;4936394;29;19938;-83
2021/09/11 14:05:06;;;;;;;;;;;;;;;19.58;65.48;99786.16;4936486;29;19927;-83
2021/09/11 14:07:32;;;;;;;;;;;;;;;19.56;66.16;99776.59;4932701;29;19931;-84
2021/09/11 14:09:59;;;;;;;;;;;;;;;19.51;66.18;99776.88;4936198;29;20392;-83
2021/09/11 14:12:25;;;;;;;;;;;;;;;19.45;66.48;99770.81;4936345;29;19933;-82
2021/09/11 14:14:53;;;;;;;;;;;;;;;19.42;66.77;99780.66;4936574;29;19933;-83
2021/09/11 14:17:19;;;;;;;;;;;;;;;19.43;66.75;99773.13;4936314;29;20379;-82
2021/09/11 14:19:46;;;;;;;;;;;;;;;19.50;66.88;99767.75;4936111;29;19926;-85
2021/09/11 14:22:12;;;;;;;;;;;;;;;19.60;66.50;99763.59;4936311;29;20343;-81
2021/09/11 14:24:37;;;;;;;;;;;;;;;19.65;66.79;99766.13;4936461;29;19977;-82
2021/09/11 14:27:03;;;;;;;;;;;;;;;19.62;67.11;99770.41;4936463;29;19927;-81
2021/09/11 14:29:30;;;;;;;;;;;;;;;19.57;66.92;99764.31;4936176;29;19927;-79
2021/09/11 14:31:56;;;;;;;;;;;;;;;19.54;67.28;99759.53;4936511;29;20281;-83
2021/09/11 14:34:23;;;;;;;;;;;;;;;19.49;67.33;99757.81;4936240;29;19977;-80
2021/09/11 14:36:50;;;;;;;;;;;;;;;19.39;67.81;99750.06;4936196;29;20009;-81
2021/09/11 14:39:15;;;;;;;;;;;;;;;19.27;68.25;99747.41;4936229;29;20077;-80
2021/09/11 14:41:41;;;;;;;;;;;;;;;19.25;68.27;99747.78;4936266;29;20447;-80
2021/09/11 14:44:07;;;;;;;;;;;;;;;19.24;68.26;99746.19;4935881;29;19934;-82
2021/09/11 14:46:32;;;;;;;;;;;;;;;19.22;68.17;99749.28;4934330;29;20285;-80
2021/09/11 14:48:58;;;;;;;;;;;;;;;19.25;67.75;99747.78;4935836;29;19931;-86
2021/09/11 14:51:24;;;;;;;;;;;;;;;19.13;68.32;99750.66;4949981;29;19934;-86
2021/09/11 14:53:52;;;;;;;;;;;;;;;19.11;68.73;99751.03;4933686;29;20352;-85
2021/09/11 14:56:18;;;;;;;;;;;;;;;19.08;68.80;99756.50;4950152;29;19931;-86
2021/09/11 14:58:44;;;;;;;;;;;;;;;18.98;68.88;99727.34;4935752;29;19927;-86
2021/09/11 15:01:10;;;;;;;;;;;;;;;19.03;69.20;99752.00;4936224;29;19933;-87
2021/09/11 15:03:37;;;;;;;;;;;;;;;18.97;69.54;99745.94;4936409;29;19961;-88
2021/09/11 15:06:03;;;;;;;;;;;;;;;18.93;69.86;99752.56;4935872;29;19958;-89
2021/09/11 15:08:30;;;;;;;;;;;;;;;18.91;69.87;99746.59;4950879;29;20013;-88
2021/09/11 15:10:56;;;;;;;;;;;;;;;18.88;70.23;99745.31;4935913;29;19927;-89
2021/09/11 15:13:21;;;;;;;;;;;;;;;18.87;73.31;99749.25;4932767;29;19927;-88
2021/09/11 15:15:47;;;;;;;;;;;;;;;18.92;71.13;99746.22;4934857;29;19989;-83
2021/09/11 15:18:13;;;;;;;;;;;;;;;18.89;70.60;99746.94;4934997;29;20308;-89
2021/09/11 15:20:39;;;;;;;;;;;;;;;18.81;70.99;99738.78;4918715;29;19926;-88
2021/09/11 15:23:06;;;;;;;;;;;;;;;18.77;70.84;99741.47;4934291;29;19933;-89
2021/09/11 15:25:31;;;;;;;;;;;;;;;18.75;72.51;99733.53;4918510;29;20289;-87
2021/09/11 15:27:57;;;;;;;;;;;;;;;18.71;72.16;99737.34;4934852;29;20021;-85
2021/09/11 15:30:23;;;;;;;;;;;;;;;18.66;72.16;99737.59;4935213;29;20017;-87
2021/09/11 15:32:51;;;;;;;;;;;;;;;18.65;72.45;99734.03;4934524;29;19926;-86
2021/09/11 15:35:16;;;;;;;;;;;;;;;18.62;72.58;99739.50;4934373;29;20350;-87
2021/09/11 15:37:42;;;;;;;;;;;;;;;18.59;72.26;99734.66;4932862;29;19927;-86
2021/09/11 15:40:09;;;;;;;;;;;;;;;18.54;72.42;99739.31;4934728;29;19937;-89
2021/09/11 15:42:35;;;;;;;;;;;;;;;18.47;73.37;99741.88;4935054;29;19927;-85
2021/09/11 15:45:05;;;;;;;;;;;;;;;18.46;73.80;99743.03;4934009;29;20059;-86
2021/09/11 15:47:33;;;;;;;;;;;;;;;18.60;73.52;99741.81;4934649;29;19931;-84
2021/09/11 15:49:59;;;;;;;;;;;;;;;18.79;72.14;99739.16;4934557;29;19953;-86
2021/09/11 15:52:25;;;;;;;;;;;;;;;19.06;71.40;99737.44;4934337;29;19927;-85
2021/09/11 15:54:52;;;;;;;;;;;;;;;19.42;70.52;99736.28;4932924;29;19982;-85
2021/09/11 15:57:18;;;;;;;;;;;;;;;19.79;69.32;99733.13;4934035;29;19931;-85
2021/09/11 15:59:45;;;;;;;;;;;;;;;19.91;67.74;99730.22;4934100;29;19926;-86
2021/09/11 16:02:11;;;;;;;;;;;;;;;20.18;67.18;99727.56;4933176;29;19923;-85
2021/09/11 16:04:37;;;;;;;;;;;;;;;20.18;66.44;99727.56;4933330;29;19998;-86
2021/09/11 16:07:04;;;;;;;;;;;;;;;20.24;66.10;99728.88;4930778;29;19974;-84
2021/09/11 16:09:31;;;;;;;;;;;;;;;20.30;66.58;99724.63;4931821;29;20557;-86
2021/09/11 16:11:57;;;;;;;;;;;;;;;20.18;66.42;99722.81;4932555;29;19970;-84
2021/09/11 16:14:23;;;;;;;;;;;;;;;20.24;66.14;99730.88;4932665;29;19982;-85
2021/09/11 16:16:49;;;;;;;;;;;;;;;20.27;66.42;99730.13;4932254;29;19934;-86
2021/09/11 16:19:15;;;;;;;;;;;;;;;20.19;66.33;99729.97;4932105;29;19947;-89
2021/09/11 16:21:42;;;;;;;;;;;;;;;20.14;66.39;99724.72;4930812;29;19923;-90
2021/09/11 16:24:08;;;;;;;;;;;;;;;20.23;66.65;99729.22;4930908;29;19926;-89
2021/09/11 16:26:35;;;;;;;;;;;;;;;20.14;66.07;99732.25;4930129;29;19933;-84
2021/09/11 16:29:02;;;;;;;;;;;;;;;20.25;66.50;99735.22;4931340;29;19922;-88
2021/09/11 16:31:28;;;;;;;;;;;;;;;20.25;66.48;99730.47;4929964;29;19993;-86
2021/09/11 16:33:54;;;;;;;;;;;;;;;20.24;66.45;99731.66;4930924;29;20006;-89
2021/09/11 16:36:20;;;;;;;;;;;;;;;20.22;66.26;99728.44;4929486;29;20431;-87
2021/09/11 16:38:46;;;;;;;;;;;;;;;20.07;67.15;99732.13;4945263;29;19931;-90
2021/09/11 16:41:13;;;;;;;;;;;;;;;20.23;66.51;99727.28;4928939;29;19927;-89
2021/09/11 16:43:40;;;;;;;;;;;;;;;20.42;65.31;99726.41;4929809;29;19979;-82
2021/09/11 16:46:06;;;;;;;;;;;;;;;20.26;65.82;99722.94;4928693;29;19934;-84
2021/09/11 16:48:32;;;;;;;;;;;;;;;20.37;65.88;99722.00;4929037;29;19926;-84
2021/09/11 16:50:58;;;;;;;;;;;;;;;20.17;66.11;99720.44;4929559;29;20532;-84
2021/09/11 16:53:23;;;;;;;;;;;;;;;20.21;65.82;99726.03;4928977;29;19923;-84
2021/09/11 16:55:50;;;;;;;;;;;;;;;20.02;67.05;99718.53;4928799;29;19988;-84
2021/09/11 16:58:15;;;;;;;;;;;;;;;19.88;67.12;99716.28;4928824;29;20392;-83
2021/09/11 17:00:43;;;;;;;;;;;;;;;19.99;68.10;99716.50;4928477;29;20434;-85
2021/09/11 17:03:09;;;;;;;;;;;;;;;20.22;66.92;99714.56;4928520;29;19927;-84
2021/09/11 17:05:36;;;;;;;;;;;;;;;20.30;67.29;99715.50;4928109;29;19934;-83
2021/09/11 17:08:06;;;;;;;;;;;;;;;20.44;65.66;99718.53;4927744;29;19922;-84
2021/09/11 17:10:36;;;;;;;;;;;;;;;20.38;65.78;99711.69;4927772;29;19934;-85
2021/09/11 17:13:01;;;;;;;;;;;;;;;20.24;66.76;99716.97;4927173;29;19930;-83
2021/09/11 17:15:29;;;;;;;;;;;;;;;20.29;67.05;99702.78;4926053;29;20099;-84
2021/09/11 17:17:55;;;;;;;;;;;;;;;20.25;66.83;99707.47;4926523;29;20304;-85
2021/09/11 17:20:23;;;;;;;;;;;;;;;20.34;65.67;99702.50;4927240;29;19934;-83
2021/09/11 17:22:49;;;;;;;;;;;;;;;20.48;66.29;99710.25;4926325;29;19931;-85
2021/09/11 17:25:15;;;;;;;;;;;;;;;20.77;64.57;99704.06;4925579;29;19977;-85
2021/09/11 17:27:44;;;;;;;;;;;;;;;20.87;64.13;99702.63;4926258;29;19962;-90
2021/09/11 17:30:11;;;;;;;;;;;;;;;20.83;64.59;99710.91;4925011;29;19926;-89
2021/09/11 17:32:36;;;;;;;;;;;;;;;20.97;63.77;99707.53;4940459;29;19977;-88
2021/09/11 17:35:03;;;;;;;;;;;;;;;20.95;63.34;99700.75;4924907;29;19926;-87
2021/09/11 17:37:29;;;;;;;;;;;;;;;20.93;64.25;99703.91;4924568;29;19931;-88
2021/09/11 17:39:56;;;;;;;;;;;;;;;21.20;63.13;99699.16;4925556;29;19922;-82
2021/09/11 17:42:23;;;;;;;;;;;;;;;21.37;62.06;99697.03;4924664;29;19974;-83
2021/09/11 17:44:49;;;;;;;;;;;;;;;21.34;62.48;99699.38;4924940;29;19994;-84
2021/09/11 17:47:17;;;;;;;;;;;;;;;21.61;61.56;99701.31;4924178;29;20392;-83
2021/09/11 17:49:43;;;;;;;;;;;;;;;21.59;61.36;99696.13;4924482;29;19927;-83
2021/09/11 17:52:09;;;;;;;;;;;;;;;21.68;60.76;99690.25;4924246;29;20285;-82
2021/09/11 17:54:35;;;;;;;;;;;;;;;21.34;62.16;99698.53;4939050;29;20026;-81
2021/09/11 17:57:02;;;;;;;;;;;;;;;21.51;61.81;99700.78;4923579;29;20029;-82
2021/09/11 17:59:28;;;;;;;;;;;;;;;21.74;60.80;99703.47;4923823;29;19931;-85
2021/09/11 18:01:54;;;;;;;;;;;;;;;21.73;60.65;99695.50;4921896;29;20436;-84
2021/09/11 18:04:23;;;;;;;;;;;;;;;21.58;61.31;99692.53;4923581;29;19926;-86
2021/09/11 18:06:50;;;;;;;;;;;;;;;21.53;61.57;99694.88;4921661;29;19926;-83
2021/09/11 18:09:17;;;;;;;;;;;;;;;21.48;61.70;99690.41;4930836;29;19934;-85
2021/09/11 18:11:43;;;;;;;;;;;;;;;21.46;61.74;99684.44;4934100;29;19926;-82
2021/09/11 18:14:09;;;;;;;;;;;;;;;21.53;61.65;99690.09;4934032;29;19931;-83
2021/09/11 18:16:35;;;;;;;;;;;;;;;21.50;61.45;99690.06;4947917;29;19927;-84
2021/09/11 18:19:01;;;;;;;;;;;;;;;21.30;61.53;99687.38;4933973;29;19934;-83
2021/09/11 18:21:27;;;;;;;;;;;;;;;20.78;63.81;99679.84;4933760;29;20530;-83
2021/09/11 18:23:53;;;;;;;;;;;;;;;20.48;64.85;99677.75;4933906;29;20063;-83
2021/09/11 18:26:20;;;;;;;;;;;;;;;20.22;66.08;99674.91;4931852;29;20052;-81
2021/09/11 18:28:48;;;;;;;;;;;;;;;20.49;65.49;99671.00;4932635;29;19931;-81
2021/09/11 18:31:15;;;;;;;;;;;;;;;20.23;65.86;99669.00;4935489;29;19974;-81
2021/09/11 18:33:43;;;;;;;;;;;;;;;20.03;66.70;99667.41;4935900;29;19927;-81